sensor_id;sensor_type;location;lat;lon;timestamp;P1;durP1;ratioP1;P2;durP2;ratioP2
41077;SDS011;26823;42.662;23.352;2024-02-16T00:00:58;22.70;;;12.93;;
41077;SDS011;26823;42.662;23.352;2024-02-16T00:03:25;25.02;;;12.63;;
41077;SDS011;26823;42.662;23.352;2024-02-16T00:05:51;22.38;;;11.75;;
41077;SDS011;26823;42.662;23.352;2024-02-16T00:08:17;24.65;;;12.07;;
41077;SDS011;26823;42.662;23.352;2024-02-16T00:10:43;21.88;;;11.93;;
41077;SDS011;26823;42.662;23.352;2024-02-16T00:13:09;27.00;;;13.35;;
41077;SDS011;26823;42.662;23.352;2024-02-16T00:15:35;21.90;;;12.45;;
41077;SDS011;26823;42.662;23.352;2024-02-16T00:18:00;28.23;;;12.45;;
41077;SDS011;26823;42.662;23.352;2024-02-16T00:20:25;24.63;;;12.45;;
41077;SDS011;26823;42.662;23.352;2024-02-16T00:22:51;23.85;;;12.52;;
41077;SDS011;26823;42.662;23.352;2024-02-16T00:25:16;25.98;;;13.32;;
41077;SDS011;26823;42.662;23.352;2024-02-16T00:27:43;23.42;;;12.95;;
41077;SDS011;26823;42.662;23.352;2024-02-16T00:30:08;21.63;;;13.32;;
41077;SDS011;26823;42.662;23.352;2024-02-16T00:32:35;21.50;;;13.15;;
41077;SDS011;26823;42.662;23.352;2024-02-16T00:35:02;24.40;;;12.63;;
41077;SDS011;26823;42.662;23.352;2024-02-16T00:37:28;22.98;;;12.07;;
41077;SDS011;26823;42.662;23.352;2024-02-16T00:39:53;22.30;;;12.48;;
41077;SDS011;26823;42.662;23.352;2024-02-16T00:42:20;23.88;;;12.50;;
41077;SDS011;26823;42.662;23.352;2024-02-16T00:44:47;21.35;;;12.85;;
41077;SDS011;26823;42.662;23.352;2024-02-16T00:47:13;24.05;;;12.43;;
41077;SDS011;26823;42.662;23.352;2024-02-16T00:49:41;19.48;;;11.48;;
41077;SDS011;26823;42.662;23.352;2024-02-16T00:52:07;20.63;;;11.95;;
41077;SDS011;26823;42.662;23.352;2024-02-16T00:54:32;18.48;;;11.70;;
41077;SDS011;26823;42.662;23.352;2024-02-16T00:56:58;20.85;;;11.70;;
41077;SDS011;26823;42.662;23.352;2024-02-16T00:59:27;18.05;;;11.32;;
41077;SDS011;26823;42.662;23.352;2024-02-16T01:01:53;20.42;;;11.65;;
41077;SDS011;26823;42.662;23.352;2024-02-16T01:04:18;20.00;;;11.65;;
41077;SDS011;26823;42.662;23.352;2024-02-16T01:06:43;21.75;;;11.48;;
41077;SDS011;26823;42.662;23.352;2024-02-16T01:09:09;24.23;;;12.15;;
41077;SDS011;26823;42.662;23.352;2024-02-16T01:11:34;20.13;;;11.70;;
41077;SDS011;26823;42.662;23.352;2024-02-16T01:13:59;22.58;;;11.77;;
41077;SDS011;26823;42.662;23.352;2024-02-16T01:16:25;20.30;;;11.80;;
41077;SDS011;26823;42.662;23.352;2024-02-16T01:18:50;22.13;;;11.43;;
41077;SDS011;26823;42.662;23.352;2024-02-16T01:21:15;25.80;;;12.00;;
41077;SDS011;26823;42.662;23.352;2024-02-16T01:23:41;21.25;;;11.77;;
41077;SDS011;26823;42.662;23.352;2024-02-16T01:26:06;24.60;;;11.60;;
41077;SDS011;26823;42.662;23.352;2024-02-16T01:28:32;20.45;;;11.77;;
41077;SDS011;26823;42.662;23.352;2024-02-16T01:30:57;28.38;;;12.77;;
41077;SDS011;26823;42.662;23.352;2024-02-16T01:33:22;21.65;;;12.80;;
41077;SDS011;26823;42.662;23.352;2024-02-16T01:35:48;26.10;;;12.25;;
41077;SDS011;26823;42.662;23.352;2024-02-16T01:38:13;19.98;;;12.23;;
41077;SDS011;26823;42.662;23.352;2024-02-16T01:40:39;22.90;;;11.63;;
41077;SDS011;26823;42.662;23.352;2024-02-16T01:43:05;30.23;;;14.25;;
41077;SDS011;26823;42.662;23.352;2024-02-16T01:45:30;22.55;;;12.07;;
41077;SDS011;26823;42.662;23.352;2024-02-16T01:47:56;26.80;;;11.27;;
41077;SDS011;26823;42.662;23.352;2024-02-16T01:50:22;21.70;;;12.25;;
41077;SDS011;26823;42.662;23.352;2024-02-16T01:52:48;23.13;;;13.23;;
41077;SDS011;26823;42.662;23.352;2024-02-16T01:55:14;24.25;;;12.68;;
41077;SDS011;26823;42.662;23.352;2024-02-16T01:57:44;27.80;;;13.52;;
41077;SDS011;26823;42.662;23.352;2024-02-16T02:00:13;25.50;;;12.95;;
41077;SDS011;26823;42.662;23.352;2024-02-16T02:02:40;21.27;;;12.00;;
41077;SDS011;26823;42.662;23.352;2024-02-16T02:05:06;21.83;;;12.45;;
41077;SDS011;26823;42.662;23.352;2024-02-16T02:07:32;20.05;;;12.60;;
41077;SDS011;26823;42.662;23.352;2024-02-16T02:09:58;20.27;;;11.85;;
41077;SDS011;26823;42.662;23.352;2024-02-16T02:12:23;19.42;;;11.57;;
41077;SDS011;26823;42.662;23.352;2024-02-16T02:14:49;20.98;;;11.80;;
41077;SDS011;26823;42.662;23.352;2024-02-16T02:17:15;27.38;;;12.70;;
41077;SDS011;26823;42.662;23.352;2024-02-16T02:19:41;19.88;;;12.15;;
41077;SDS011;26823;42.662;23.352;2024-02-16T02:22:12;18.05;;;12.15;;
41077;SDS011;26823;42.662;23.352;2024-02-16T02:24:39;20.63;;;12.30;;
41077;SDS011;26823;42.662;23.352;2024-02-16T02:27:04;23.23;;;12.50;;
41077;SDS011;26823;42.662;23.352;2024-02-16T02:29:30;19.27;;;11.90;;
41077;SDS011;26823;42.662;23.352;2024-02-16T02:31:55;22.58;;;12.55;;
41077;SDS011;26823;42.662;23.352;2024-02-16T02:34:20;24.42;;;12.32;;
41077;SDS011;26823;42.662;23.352;2024-02-16T02:36:46;23.15;;;12.50;;
41077;SDS011;26823;42.662;23.352;2024-02-16T02:39:11;23.60;;;11.93;;
41077;SDS011;26823;42.662;23.352;2024-02-16T02:41:38;21.48;;;12.00;;
41077;SDS011;26823;42.662;23.352;2024-02-16T02:44:04;22.13;;;12.32;;
41077;SDS011;26823;42.662;23.352;2024-02-16T02:46:30;20.23;;;11.43;;
41077;SDS011;26823;42.662;23.352;2024-02-16T02:48:55;20.90;;;12.00;;
41077;SDS011;26823;42.662;23.352;2024-02-16T02:51:20;21.05;;;11.75;;
41077;SDS011;26823;42.662;23.352;2024-02-16T02:53:46;18.88;;;11.93;;
41077;SDS011;26823;42.662;23.352;2024-02-16T02:56:11;18.23;;;11.18;;
41077;SDS011;26823;42.662;23.352;2024-02-16T02:58:38;22.25;;;11.93;;
41077;SDS011;26823;42.662;23.352;2024-02-16T03:01:04;22.55;;;12.05;;
41077;SDS011;26823;42.662;23.352;2024-02-16T03:03:32;20.17;;;11.75;;
41077;SDS011;26823;42.662;23.352;2024-02-16T03:05:58;20.70;;;11.75;;
41077;SDS011;26823;42.662;23.352;2024-02-16T03:08:24;24.77;;;12.20;;
41077;SDS011;26823;42.662;23.352;2024-02-16T03:10:49;18.38;;;11.23;;
41077;SDS011;26823;42.662;23.352;2024-02-16T03:13:14;25.58;;;11.82;;
41077;SDS011;26823;42.662;23.352;2024-02-16T03:15:43;23.77;;;11.98;;
41077;SDS011;26823;42.662;23.352;2024-02-16T03:18:08;21.35;;;11.68;;
41077;SDS011;26823;42.662;23.352;2024-02-16T03:20:34;20.02;;;12.35;;
41077;SDS011;26823;42.662;23.352;2024-02-16T03:23:00;20.85;;;11.38;;
41077;SDS011;26823;42.662;23.352;2024-02-16T03:25:26;22.88;;;11.27;;
41077;SDS011;26823;42.662;23.352;2024-02-16T03:27:51;23.55;;;12.82;;
41077;SDS011;26823;42.662;23.352;2024-02-16T03:30:18;25.77;;;12.15;;
41077;SDS011;26823;42.662;23.352;2024-02-16T03:32:47;19.40;;;11.23;;
41077;SDS011;26823;42.662;23.352;2024-02-16T03:35:16;22.10;;;11.63;;
41077;SDS011;26823;42.662;23.352;2024-02-16T03:37:42;22.35;;;11.73;;
41077;SDS011;26823;42.662;23.352;2024-02-16T03:40:07;26.10;;;11.75;;
41077;SDS011;26823;42.662;23.352;2024-02-16T03:42:34;22.27;;;11.13;;
41077;SDS011;26823;42.662;23.352;2024-02-16T03:45:00;19.75;;;10.90;;
41077;SDS011;26823;42.662;23.352;2024-02-16T03:47:26;18.52;;;10.98;;
41077;SDS011;26823;42.662;23.352;2024-02-16T03:49:51;23.75;;;12.00;;
41077;SDS011;26823;42.662;23.352;2024-02-16T03:52:17;29.13;;;10.88;;
41077;SDS011;26823;42.662;23.352;2024-02-16T03:54:42;21.80;;;11.23;;
41077;SDS011;26823;42.662;23.352;2024-02-16T03:57:09;18.52;;;10.82;;
41077;SDS011;26823;42.662;23.352;2024-02-16T03:59:36;23.13;;;11.13;;
41077;SDS011;26823;42.662;23.352;2024-02-16T04:02:02;19.50;;;10.90;;
41077;SDS011;26823;42.662;23.352;2024-02-16T04:04:27;19.73;;;11.10;;
41077;SDS011;26823;42.662;23.352;2024-02-16T04:06:53;19.90;;;10.88;;
41077;SDS011;26823;42.662;23.352;2024-02-16T04:09:18;17.05;;;9.70;;
41077;SDS011;26823;42.662;23.352;2024-02-16T04:11:45;19.35;;;10.00;;
41077;SDS011;26823;42.662;23.352;2024-02-16T04:14:11;18.40;;;9.68;;
41077;SDS011;26823;42.662;23.352;2024-02-16T04:16:37;18.40;;;9.95;;
41077;SDS011;26823;42.662;23.352;2024-02-16T04:19:02;19.65;;;9.82;;
41077;SDS011;26823;42.662;23.352;2024-02-16T04:21:28;18.60;;;10.02;;
41077;SDS011;26823;42.662;23.352;2024-02-16T04:23:53;20.50;;;9.57;;
41077;SDS011;26823;42.662;23.352;2024-02-16T04:26:18;13.55;;;10.30;;
41077;SDS011;26823;42.662;23.352;2024-02-16T04:28:44;14.90;;;9.55;;
41077;SDS011;26823;42.662;23.352;2024-02-16T04:31:09;20.45;;;9.90;;
41077;SDS011;26823;42.662;23.352;2024-02-16T04:33:34;18.67;;;10.65;;
41077;SDS011;26823;42.662;23.352;2024-02-16T04:36:00;15.82;;;9.75;;
41077;SDS011;26823;42.662;23.352;2024-02-16T04:38:25;19.45;;;9.85;;
41077;SDS011;26823;42.662;23.352;2024-02-16T04:40:50;19.88;;;10.25;;
41077;SDS011;26823;42.662;23.352;2024-02-16T04:43:16;14.85;;;9.13;;
41077;SDS011;26823;42.662;23.352;2024-02-16T04:45:42;17.95;;;9.85;;
41077;SDS011;26823;42.662;23.352;2024-02-16T04:48:08;17.10;;;10.20;;
41077;SDS011;26823;42.662;23.352;2024-02-16T04:50:34;21.00;;;10.13;;
41077;SDS011;26823;42.662;23.352;2024-02-16T04:53:00;22.35;;;10.88;;
41077;SDS011;26823;42.662;23.352;2024-02-16T04:55:28;18.95;;;9.90;;
41077;SDS011;26823;42.662;23.352;2024-02-16T04:57:55;16.92;;;10.57;;
41077;SDS011;26823;42.662;23.352;2024-02-16T05:00:21;20.70;;;11.90;;
41077;SDS011;26823;42.662;23.352;2024-02-16T05:02:46;18.67;;;10.85;;
41077;SDS011;26823;42.662;23.352;2024-02-16T05:05:11;21.42;;;11.05;;
41077;SDS011;26823;42.662;23.352;2024-02-16T05:07:37;16.85;;;10.02;;
41077;SDS011;26823;42.662;23.352;2024-02-16T05:10:02;21.85;;;10.65;;
41077;SDS011;26823;42.662;23.352;2024-02-16T05:12:28;15.00;;;9.40;;
41077;SDS011;26823;42.662;23.352;2024-02-16T05:14:54;18.42;;;10.77;;
41077;SDS011;26823;42.662;23.352;2024-02-16T05:17:20;25.17;;;11.27;;
41077;SDS011;26823;42.662;23.352;2024-02-16T05:19:47;18.88;;;11.18;;
41077;SDS011;26823;42.662;23.352;2024-02-16T05:22:13;19.15;;;11.10;;
41077;SDS011;26823;42.662;23.352;2024-02-16T05:24:39;23.88;;;11.20;;
41077;SDS011;26823;42.662;23.352;2024-02-16T05:27:04;16.52;;;10.38;;
41077;SDS011;26823;42.662;23.352;2024-02-16T05:29:30;25.35;;;11.23;;
41077;SDS011;26823;42.662;23.352;2024-02-16T05:31:55;15.55;;;10.48;;
41077;SDS011;26823;42.662;23.352;2024-02-16T05:34:20;23.85;;;11.80;;
41077;SDS011;26823;42.662;23.352;2024-02-16T05:36:46;27.33;;;12.43;;
41077;SDS011;26823;42.662;23.352;2024-02-16T05:39:12;22.17;;;11.23;;
41077;SDS011;26823;42.662;23.352;2024-02-16T05:41:52;21.15;;;12.00;;
41077;SDS011;26823;42.662;23.352;2024-02-16T05:44:18;24.50;;;12.35;;
41077;SDS011;26823;42.662;23.352;2024-02-16T05:46:44;23.38;;;11.95;;
41077;SDS011;26823;42.662;23.352;2024-02-16T05:49:10;23.85;;;12.98;;
41077;SDS011;26823;42.662;23.352;2024-02-16T05:51:36;23.85;;;13.00;;
41077;SDS011;26823;42.662;23.352;2024-02-16T05:54:04;21.48;;;12.35;;
41077;SDS011;26823;42.662;23.352;2024-02-16T05:56:29;25.75;;;12.60;;
41077;SDS011;26823;42.662;23.352;2024-02-16T05:58:58;22.10;;;12.35;;
41077;SDS011;26823;42.662;23.352;2024-02-16T06:01:24;23.33;;;13.02;;
41077;SDS011;26823;42.662;23.352;2024-02-16T06:03:49;21.23;;;12.45;;
41077;SDS011;26823;42.662;23.352;2024-02-16T06:06:15;24.75;;;13.65;;
41077;SDS011;26823;42.662;23.352;2024-02-16T06:08:40;25.55;;;13.43;;
41077;SDS011;26823;42.662;23.352;2024-02-16T06:11:08;26.58;;;13.85;;
41077;SDS011;26823;42.662;23.352;2024-02-16T06:13:34;27.30;;;12.70;;
41077;SDS011;26823;42.662;23.352;2024-02-16T06:15:59;24.23;;;13.43;;
41077;SDS011;26823;42.662;23.352;2024-02-16T06:18:24;17.98;;;12.00;;
41077;SDS011;26823;42.662;23.352;2024-02-16T06:20:50;17.30;;;11.55;;
41077;SDS011;26823;42.662;23.352;2024-02-16T06:23:16;20.42;;;12.10;;
41077;SDS011;26823;42.662;23.352;2024-02-16T06:25:42;19.30;;;11.70;;
41077;SDS011;26823;42.662;23.352;2024-02-16T06:28:08;21.75;;;12.25;;
41077;SDS011;26823;42.662;23.352;2024-02-16T06:30:33;16.77;;;11.93;;
41077;SDS011;26823;42.662;23.352;2024-02-16T06:32:59;18.33;;;11.60;;
41077;SDS011;26823;42.662;23.352;2024-02-16T06:35:25;24.23;;;12.70;;
41077;SDS011;26823;42.662;23.352;2024-02-16T06:37:51;17.63;;;11.68;;
41077;SDS011;26823;42.662;23.352;2024-02-16T06:40:16;20.35;;;12.05;;
41077;SDS011;26823;42.662;23.352;2024-02-16T06:42:42;30.02;;;16.77;;
41077;SDS011;26823;42.662;23.352;2024-02-16T06:45:08;27.15;;;17.75;;
41077;SDS011;26823;42.662;23.352;2024-02-16T06:47:33;31.33;;;18.55;;
41077;SDS011;26823;42.662;23.352;2024-02-16T06:49:59;27.60;;;17.40;;
41077;SDS011;26823;42.662;23.352;2024-02-16T06:52:24;29.80;;;17.50;;
41077;SDS011;26823;42.662;23.352;2024-02-16T06:54:50;29.00;;;17.33;;
41077;SDS011;26823;42.662;23.352;2024-02-16T06:57:16;26.70;;;17.08;;
41077;SDS011;26823;42.662;23.352;2024-02-16T06:59:42;30.67;;;16.95;;
41077;SDS011;26823;42.662;23.352;2024-02-16T07:02:07;34.30;;;17.73;;
41077;SDS011;26823;42.662;23.352;2024-02-16T07:04:34;29.10;;;18.08;;
41077;SDS011;26823;42.662;23.352;2024-02-16T07:06:59;27.60;;;16.77;;
41077;SDS011;26823;42.662;23.352;2024-02-16T07:09:25;28.25;;;17.10;;
41077;SDS011;26823;42.662;23.352;2024-02-16T07:11:50;27.77;;;18.10;;
41077;SDS011;26823;42.662;23.352;2024-02-16T07:14:16;23.20;;;16.75;;
41077;SDS011;26823;42.662;23.352;2024-02-16T07:16:42;29.95;;;17.30;;
41077;SDS011;26823;42.662;23.352;2024-02-16T07:19:07;26.92;;;16.85;;
41077;SDS011;26823;42.662;23.352;2024-02-16T07:21:33;27.85;;;15.30;;
41077;SDS011;26823;42.662;23.352;2024-02-16T07:23:59;26.05;;;14.38;;
41077;SDS011;26823;42.662;23.352;2024-02-16T07:26:24;23.42;;;14.57;;
41077;SDS011;26823;42.662;23.352;2024-02-16T07:28:50;23.60;;;14.27;;
41077;SDS011;26823;42.662;23.352;2024-02-16T07:31:15;22.67;;;13.25;;
41077;SDS011;26823;42.662;23.352;2024-02-16T07:33:41;20.52;;;12.68;;
41077;SDS011;26823;42.662;23.352;2024-02-16T07:36:07;20.33;;;12.85;;
41077;SDS011;26823;42.662;23.352;2024-02-16T07:38:32;22.92;;;12.77;;
41077;SDS011;26823;42.662;23.352;2024-02-16T07:40:58;20.05;;;13.48;;
41077;SDS011;26823;42.662;23.352;2024-02-16T07:43:24;16.67;;;11.15;;
41077;SDS011;26823;42.662;23.352;2024-02-16T07:45:49;16.98;;;11.05;;
41077;SDS011;26823;42.662;23.352;2024-02-16T07:48:18;16.75;;;12.18;;
41077;SDS011;26823;42.662;23.352;2024-02-16T07:50:44;24.63;;;11.32;;
41077;SDS011;26823;42.662;23.352;2024-02-16T07:53:10;16.73;;;12.20;;
41077;SDS011;26823;42.662;23.352;2024-02-16T07:55:36;24.60;;;13.57;;
41077;SDS011;26823;42.662;23.352;2024-02-16T07:58:01;15.27;;;12.02;;
41077;SDS011;26823;42.662;23.352;2024-02-16T08:00:27;21.45;;;13.32;;
41077;SDS011;26823;42.662;23.352;2024-02-16T08:02:53;22.63;;;13.18;;
41077;SDS011;26823;42.662;23.352;2024-02-16T08:05:19;22.60;;;13.63;;
41077;SDS011;26823;42.662;23.352;2024-02-16T08:07:45;22.70;;;12.20;;
41077;SDS011;26823;42.662;23.352;2024-02-16T08:10:12;24.58;;;13.48;;
41077;SDS011;26823;42.662;23.352;2024-02-16T08:12:37;23.27;;;13.63;;
41077;SDS011;26823;42.662;23.352;2024-02-16T08:15:03;18.88;;;12.60;;
41077;SDS011;26823;42.662;23.352;2024-02-16T08:17:32;20.35;;;13.75;;
41077;SDS011;26823;42.662;23.352;2024-02-16T08:19:58;20.05;;;12.73;;
41077;SDS011;26823;42.662;23.352;2024-02-16T08:22:24;21.60;;;15.02;;
41077;SDS011;26823;42.662;23.352;2024-02-16T08:24:49;22.08;;;14.95;;
41077;SDS011;26823;42.662;23.352;2024-02-16T08:27:15;24.15;;;14.90;;
41077;SDS011;26823;42.662;23.352;2024-02-16T08:29:41;18.65;;;13.95;;
41077;SDS011;26823;42.662;23.352;2024-02-16T08:32:07;22.45;;;15.63;;
41077;SDS011;26823;42.662;23.352;2024-02-16T08:34:34;28.27;;;13.15;;
41077;SDS011;26823;42.662;23.352;2024-02-16T08:37:02;23.13;;;13.43;;
41077;SDS011;26823;42.662;23.352;2024-02-16T08:39:28;24.25;;;13.68;;
41077;SDS011;26823;42.662;23.352;2024-02-16T08:41:54;23.08;;;17.55;;
41077;SDS011;26823;42.662;23.352;2024-02-16T08:44:20;26.90;;;18.17;;
41077;SDS011;26823;42.662;23.352;2024-02-16T08:46:45;36.40;;;19.73;;
41077;SDS011;26823;42.662;23.352;2024-02-16T08:49:13;30.85;;;20.48;;
41077;SDS011;26823;42.662;23.352;2024-02-16T08:51:39;34.80;;;20.83;;
41077;SDS011;26823;42.662;23.352;2024-02-16T08:54:04;32.38;;;19.67;;
41077;SDS011;26823;42.662;23.352;2024-02-16T08:56:30;34.63;;;20.48;;
41077;SDS011;26823;42.662;23.352;2024-02-16T08:58:56;34.22;;;22.23;;
41077;SDS011;26823;42.662;23.352;2024-02-16T09:04:01;42.10;;;24.65;;
41077;SDS011;26823;42.662;23.352;2024-02-16T09:06:27;37.40;;;23.92;;
41077;SDS011;26823;42.662;23.352;2024-02-16T09:08:53;41.83;;;24.83;;
41077;SDS011;26823;42.662;23.352;2024-02-16T09:11:19;35.92;;;25.10;;
41077;SDS011;26823;42.662;23.352;2024-02-16T09:13:45;33.00;;;23.45;;
41077;SDS011;26823;42.662;23.352;2024-02-16T09:16:11;29.42;;;22.40;;
41077;SDS011;26823;42.662;23.352;2024-02-16T09:18:36;31.20;;;21.05;;
41077;SDS011;26823;42.662;23.352;2024-02-16T09:21:03;30.13;;;21.35;;
41077;SDS011;26823;42.662;23.352;2024-02-16T09:23:28;29.30;;;21.75;;
41077;SDS011;26823;42.662;23.352;2024-02-16T09:25:54;23.92;;;16.98;;
41077;SDS011;26823;42.662;23.352;2024-02-16T09:28:20;27.58;;;17.15;;
41077;SDS011;26823;42.662;23.352;2024-02-16T09:30:45;29.73;;;18.52;;
41077;SDS011;26823;42.662;23.352;2024-02-16T09:33:11;25.40;;;17.05;;
41077;SDS011;26823;42.662;23.352;2024-02-16T09:35:37;14.93;;;11.27;;
41077;SDS011;26823;42.662;23.352;2024-02-16T09:38:02;5.47;;;4.97;;
41077;SDS011;26823;42.662;23.352;2024-02-16T09:40:28;10.50;;;6.75;;
41077;SDS011;26823;42.662;23.352;2024-02-16T09:42:54;11.63;;;9.30;;
41077;SDS011;26823;42.662;23.352;2024-02-16T09:45:19;12.48;;;9.57;;
41077;SDS011;26823;42.662;23.352;2024-02-16T09:47:45;13.60;;;9.48;;
41077;SDS011;26823;42.662;23.352;2024-02-16T09:50:14;12.48;;;9.25;;
41077;SDS011;26823;42.662;23.352;2024-02-16T09:52:40;13.13;;;9.40;;
41077;SDS011;26823;42.662;23.352;2024-02-16T09:55:15;11.60;;;8.70;;
41077;SDS011;26823;42.662;23.352;2024-02-16T09:57:42;7.25;;;5.88;;
41077;SDS011;26823;42.662;23.352;2024-02-16T10:00:11;5.50;;;4.53;;
41077;SDS011;26823;42.662;23.352;2024-02-16T10:02:43;4.70;;;4.20;;
41077;SDS011;26823;42.662;23.352;2024-02-16T10:05:13;6.53;;;5.00;;
41077;SDS011;26823;42.662;23.352;2024-02-16T10:07:41;8.45;;;5.68;;
41077;SDS011;26823;42.662;23.352;2024-02-16T10:10:19;6.65;;;4.72;;
41077;SDS011;26823;42.662;23.352;2024-02-16T10:15:26;8.35;;;6.00;;
41077;SDS011;26823;42.662;23.352;2024-02-16T10:20:24;7.90;;;5.40;;
41077;SDS011;26823;42.662;23.352;2024-02-16T10:22:49;6.72;;;5.40;;
41077;SDS011;26823;42.662;23.352;2024-02-16T10:25:14;6.72;;;5.43;;
41077;SDS011;26823;42.662;23.352;2024-02-16T10:27:40;6.57;;;4.72;;
41077;SDS011;26823;42.662;23.352;2024-02-16T10:30:07;9.55;;;5.50;;
41077;SDS011;26823;42.662;23.352;2024-02-16T10:32:38;7.53;;;5.53;;
41077;SDS011;26823;42.662;23.352;2024-02-16T10:35:03;7.05;;;5.57;;
41077;SDS011;26823;42.662;23.352;2024-02-16T10:37:32;8.07;;;6.07;;
41077;SDS011;26823;42.662;23.352;2024-02-16T10:39:57;5.40;;;4.50;;
41077;SDS011;26823;42.662;23.352;2024-02-16T10:42:25;4.35;;;3.95;;
41077;SDS011;26823;42.662;23.352;2024-02-16T10:44:52;4.45;;;3.72;;
41077;SDS011;26823;42.662;23.352;2024-02-16T10:47:18;7.03;;;4.20;;
41077;SDS011;26823;42.662;23.352;2024-02-16T10:49:44;6.15;;;4.30;;
41077;SDS011;26823;42.662;23.352;2024-02-16T10:52:10;4.47;;;3.35;;
41077;SDS011;26823;42.662;23.352;2024-02-16T10:54:37;7.15;;;4.50;;
41077;SDS011;26823;42.662;23.352;2024-02-16T10:57:07;5.25;;;3.97;;
41077;SDS011;26823;42.662;23.352;2024-02-16T10:59:42;7.65;;;5.47;;
41077;SDS011;26823;42.662;23.352;2024-02-16T11:02:12;11.13;;;5.35;;
41077;SDS011;26823;42.662;23.352;2024-02-16T11:04:39;6.85;;;5.22;;
41077;SDS011;26823;42.662;23.352;2024-02-16T11:07:11;6.47;;;5.20;;
41077;SDS011;26823;42.662;23.352;2024-02-16T11:09:40;9.50;;;5.88;;
41077;SDS011;26823;42.662;23.352;2024-02-16T11:12:06;7.95;;;5.47;;
41077;SDS011;26823;42.662;23.352;2024-02-16T11:14:37;5.93;;;5.03;;
41077;SDS011;26823;42.662;23.352;2024-02-16T11:19:40;5.45;;;4.70;;
41077;SDS011;26823;42.662;23.352;2024-02-16T11:22:09;7.60;;;5.22;;
41077;SDS011;26823;42.662;23.352;2024-02-16T11:24:36;6.82;;;4.95;;
41077;SDS011;26823;42.662;23.352;2024-02-16T11:27:07;5.68;;;4.93;;
41077;SDS011;26823;42.662;23.352;2024-02-16T11:29:33;8.48;;;4.43;;
41077;SDS011;26823;42.662;23.352;2024-02-16T11:32:00;4.93;;;4.35;;
41077;SDS011;26823;42.662;23.352;2024-02-16T11:34:27;7.18;;;5.50;;
41077;SDS011;26823;42.662;23.352;2024-02-16T11:36:57;6.00;;;4.47;;
41077;SDS011;26823;42.662;23.352;2024-02-16T11:39:24;5.00;;;4.50;;
41077;SDS011;26823;42.662;23.352;2024-02-16T11:44:52;5.57;;;4.80;;
41077;SDS011;26823;42.662;23.352;2024-02-16T11:47:19;7.38;;;4.60;;
41077;SDS011;26823;42.662;23.352;2024-02-16T11:49:59;5.32;;;4.57;;
41077;SDS011;26823;42.662;23.352;2024-02-16T11:52:28;5.68;;;4.45;;
41077;SDS011;26823;42.662;23.352;2024-02-16T11:54:53;6.63;;;4.95;;
41077;SDS011;26823;42.662;23.352;2024-02-16T11:57:19;7.95;;;4.20;;
41077;SDS011;26823;42.662;23.352;2024-02-16T11:59:44;5.00;;;3.72;;
41077;SDS011;26823;42.662;23.352;2024-02-16T12:02:16;4.82;;;3.63;;
41077;SDS011;26823;42.662;23.352;2024-02-16T12:04:44;5.67;;;3.77;;
41077;SDS011;26823;42.662;23.352;2024-02-16T12:07:12;4.53;;;3.50;;
41077;SDS011;26823;42.662;23.352;2024-02-16T12:09:38;3.83;;;3.40;;
41077;SDS011;26823;42.662;23.352;2024-02-16T12:12:04;6.80;;;3.97;;
41077;SDS011;26823;42.662;23.352;2024-02-16T12:14:30;6.78;;;3.80;;
41077;SDS011;26823;42.662;23.352;2024-02-16T12:16:57;4.70;;;4.15;;
41077;SDS011;26823;42.662;23.352;2024-02-16T12:19:23;9.68;;;4.28;;
41077;SDS011;26823;42.662;23.352;2024-02-16T12:21:52;5.75;;;4.32;;
41077;SDS011;26823;42.662;23.352;2024-02-16T12:24:18;4.53;;;3.90;;
41077;SDS011;26823;42.662;23.352;2024-02-16T12:26:45;6.25;;;3.95;;
41077;SDS011;26823;42.662;23.352;2024-02-16T12:29:11;7.70;;;3.88;;
41077;SDS011;26823;42.662;23.352;2024-02-16T12:31:41;5.97;;;4.10;;
41077;SDS011;26823;42.662;23.352;2024-02-16T12:34:09;4.50;;;3.85;;
41077;SDS011;26823;42.662;23.352;2024-02-16T12:36:35;5.78;;;4.38;;
41077;SDS011;26823;42.662;23.352;2024-02-16T12:39:01;9.07;;;4.35;;
41077;SDS011;26823;42.662;23.352;2024-02-16T12:41:28;5.85;;;4.03;;
41077;SDS011;26823;42.662;23.352;2024-02-16T12:43:55;6.78;;;4.43;;
41077;SDS011;26823;42.662;23.352;2024-02-16T12:46:20;5.10;;;4.55;;
41077;SDS011;26823;42.662;23.352;2024-02-16T12:48:46;7.20;;;4.97;;
41077;SDS011;26823;42.662;23.352;2024-02-16T12:51:11;6.25;;;5.05;;
41077;SDS011;26823;42.662;23.352;2024-02-16T12:53:37;5.88;;;4.90;;
41077;SDS011;26823;42.662;23.352;2024-02-16T12:56:06;9.68;;;5.05;;
41077;SDS011;26823;42.662;23.352;2024-02-16T12:58:33;6.43;;;5.00;;
41077;SDS011;26823;42.662;23.352;2024-02-16T13:00:58;5.60;;;4.40;;
41077;SDS011;26823;42.662;23.352;2024-02-16T13:03:24;6.95;;;4.55;;
41077;SDS011;26823;42.662;23.352;2024-02-16T13:05:49;12.07;;;5.22;;
41077;SDS011;26823;42.662;23.352;2024-02-16T13:08:15;7.97;;;6.25;;
41077;SDS011;26823;42.662;23.352;2024-02-16T13:10:40;6.10;;;5.20;;
41077;SDS011;26823;42.662;23.352;2024-02-16T13:13:06;10.40;;;4.88;;
41077;SDS011;26823;42.662;23.352;2024-02-16T13:15:31;6.75;;;5.15;;
41077;SDS011;26823;42.662;23.352;2024-02-16T13:17:57;5.43;;;4.50;;
41077;SDS011;26823;42.662;23.352;2024-02-16T13:20:22;4.65;;;4.10;;
41077;SDS011;26823;42.662;23.352;2024-02-16T13:22:48;5.50;;;4.82;;
41077;SDS011;26823;42.662;23.352;2024-02-16T13:25:14;6.40;;;4.60;;
41077;SDS011;26823;42.662;23.352;2024-02-16T13:27:40;6.80;;;5.10;;
41077;SDS011;26823;42.662;23.352;2024-02-16T13:30:06;6.88;;;5.03;;
41077;SDS011;26823;42.662;23.352;2024-02-16T13:32:33;11.35;;;5.72;;
41077;SDS011;26823;42.662;23.352;2024-02-16T13:34:59;7.72;;;5.25;;
41077;SDS011;26823;42.662;23.352;2024-02-16T13:37:24;6.32;;;4.70;;
41077;SDS011;26823;42.662;23.352;2024-02-16T13:39:49;7.88;;;5.22;;
41077;SDS011;26823;42.662;23.352;2024-02-16T13:42:16;6.13;;;4.68;;
41077;SDS011;26823;42.662;23.352;2024-02-16T13:44:41;6.18;;;4.75;;
41077;SDS011;26823;42.662;23.352;2024-02-16T13:47:07;6.43;;;4.53;;
41077;SDS011;26823;42.662;23.352;2024-02-16T13:49:33;7.78;;;5.25;;
41077;SDS011;26823;42.662;23.352;2024-02-16T13:51:59;6.30;;;5.00;;
41077;SDS011;26823;42.662;23.352;2024-02-16T13:54:25;6.50;;;5.15;;
41077;SDS011;26823;42.662;23.352;2024-02-16T13:56:50;8.60;;;5.10;;
41077;SDS011;26823;42.662;23.352;2024-02-16T13:59:16;6.32;;;5.18;;
41077;SDS011;26823;42.662;23.352;2024-02-16T14:01:41;6.45;;;5.15;;
41077;SDS011;26823;42.662;23.352;2024-02-16T14:04:07;5.22;;;4.72;;
41077;SDS011;26823;42.662;23.352;2024-02-16T14:06:33;7.53;;;5.30;;
41077;SDS011;26823;42.662;23.352;2024-02-16T14:09:00;5.30;;;4.57;;
41077;SDS011;26823;42.662;23.352;2024-02-16T14:11:26;6.63;;;4.97;;
41077;SDS011;26823;42.662;23.352;2024-02-16T14:13:51;5.85;;;4.55;;
41077;SDS011;26823;42.662;23.352;2024-02-16T14:16:17;6.05;;;5.45;;
41077;SDS011;26823;42.662;23.352;2024-02-16T14:18:43;6.20;;;4.55;;
41077;SDS011;26823;42.662;23.352;2024-02-16T14:21:08;5.57;;;4.32;;
41077;SDS011;26823;42.662;23.352;2024-02-16T14:23:33;7.28;;;4.47;;